Terminal Aerodrome Forecast
Issued by NWS

Home | Current Version | Previous Version | Text Only | Print | Product List | Glossary Off
Versions: 1 2 3 4 5 6 7 8 9 10 11 12

000
FTUS45 KGGW 160526
TAFGDV
TAF
KGDV 160526Z 1606/1706 33005KT P6SM FEW100
     FM160900 03004KT 5SM BR FEW010
     FM161200 00000KT 2SM BR SCT003
     FM161500 VRB05KT P6SM SKC=

USA.gov is the U.S. government's official web portal to all federal, state and local government web resources and services.